Harvey, North Dakota
Current Conditions -  °F | °C
As of 5:15 PM on Wednesday 22 Oct 2014 (Local Time) from K5H4 Reporting Station
Clear Clear  
Wind Chill: 63°   Ceiling: Unl
Heat Index: 63°   Visibility: 10mi
Dew Point: 41°   Wind: 14mph
Humidity: 45%   Direction: 260°W
Pressure: 29.8"   Gusts: 18mph
Location:  47.77°N, 99.94°W
Report Text: K5H4 222215Z AUTO 26012G16KT 10SM CLR 17/05 A2980 RMK AO2
Loading
Personal Weather Stations






























Interactive Weather Map
Tropical Storm Tracking
New forecast layout! Learn more

10-Day Weather Forecast

Advertisements
Track Severe Weather on mobile